Time;durP1;ratioP1;P1;durP2;ratioP2;P2;SDS_P1;SDS_P2;PMS_P1;PMS_P2;Temp;Humidity;BMP_temperature;BMP_pressure;BME280_temperature;BME280_humidity;BME280_pressure;Samples;Min_cycle;Max_cycle;Signal;HPM_P1;HPM_P2
2023/04/23 00:00:15;;;;;;;71.80;35.33;;;;;;;;;;4984803;28;20418;-78
2023/04/23 00:02:43;;;;;;;73.43;35.75;;;;;;;;;;4976627;28;20420;-78
2023/04/23 00:05:11;;;;;;;79.60;37.43;;;;;;;;;;4958782;28;20430;-78
2023/04/23 00:07:38;;;;;;;68.60;35.53;;;;;;;;;;4974723;28;20438;-79
2023/04/23 00:10:07;;;;;;;73.00;35.63;;;;;;;;;;4958033;28;20476;-78
2023/04/23 00:12:34;;;;;;;76.20;35.83;;;;;;;;;;4962398;28;20433;-78
2023/04/23 00:15:01;;;;;;;72.50;35.35;;;;;;;;;;4978273;28;20473;-78
2023/04/23 00:17:27;;;;;;;70.90;34.72;;;;;;;;;;4974047;28;20469;-78
2023/04/23 00:19:53;;;;;;;70.03;34.85;;;;;;;;;;4971682;28;20434;-79
2023/04/23 00:22:19;;;;;;;67.72;34.63;;;;;;;;;;4968714;28;20446;-78
2023/04/23 00:24:45;;;;;;;70.07;34.80;;;;;;;;;;4974135;28;20411;-78
2023/04/23 00:27:11;;;;;;;73.00;35.55;;;;;;;;;;4977449;28;20436;-78
2023/04/23 00:29:38;;;;;;;65.68;33.92;;;;;;;;;;4963276;28;20409;-78
2023/04/23 00:32:04;;;;;;;70.13;35.78;;;;;;;;;;4978416;28;20513;-78
2023/04/23 00:34:30;;;;;;;71.05;34.83;;;;;;;;;;4973988;28;20480;-78
2023/04/23 00:36:56;;;;;;;67.90;34.13;;;;;;;;;;4958922;28;20423;-78
2023/04/23 00:39:22;;;;;;;70.72;35.13;;;;;;;;;;4991070;28;20418;-79
2023/04/23 00:41:48;;;;;;;68.97;34.22;;;;;;;;;;4979534;28;20418;-79
2023/04/23 00:44:14;;;;;;;65.97;34.03;;;;;;;;;;4983304;28;20426;-79
2023/04/23 00:46:40;;;;;;;66.95;34.75;;;;;;;;;;4958550;28;20773;-79
2023/04/23 00:49:07;;;;;;;65.50;34.35;;;;;;;;;;4974326;28;20414;-79
2023/04/23 00:51:33;;;;;;;68.70;34.92;;;;;;;;;;4956952;28;20509;-79
2023/04/23 00:53:59;;;;;;;68.93;34.90;;;;;;;;;;4958028;28;20474;-79
2023/04/23 00:56:26;;;;;;;67.18;34.45;;;;;;;;;;4974674;28;20433;-78
2023/04/23 00:58:52;;;;;;;73.32;37.38;;;;;;;;;;4975367;28;20422;-79
2023/04/23 01:01:20;;;;;;;77.70;36.30;;;7.30;99.90;;;;;;4957665;28;20422;-79
2023/04/23 01:03:51;;;;;;;66.22;34.35;;;7.30;99.90;;;;;;4972140;28;20761;-78
2023/04/23 01:06:18;;;;;;;79.28;35.95;;;;;;;;;;4981203;28;20770;-78
2023/04/23 01:08:45;;;;;;;82.13;37.30;;;7.50;99.90;;;;;;4982441;28;20433;-79
2023/04/23 01:11:13;;;;;;;78.22;36.42;;;;;;;;;;4989204;28;20437;-78
2023/04/23 01:13:39;;;;;;;77.23;36.90;;;;;;;;;;4964581;28;20494;-78
2023/04/23 01:16:07;;;;;;;81.90;38.00;;;;;;;;;;4963745;28;20430;-80
2023/04/23 01:18:33;;;;;;;82.72;37.92;;;;;;;;;;5005768;28;20462;-78
2023/04/23 01:20:59;;;;;;;80.78;38.42;;;;;;;;;;4972840;28;20501;-78
2023/04/23 01:23:28;;;;;;;89.60;40.23;;;;;;;;;;4977229;28;20944;-78
2023/04/23 01:25:54;;;;;;;82.00;38.47;;;;;;;;;;4961840;28;20834;-79
2023/04/23 01:28:20;;;;;;;77.28;38.72;;;;;;;;;;4958470;28;20406;-79
2023/04/23 01:30:47;;;;;;;78.55;38.90;;;;;;;;;;4980313;28;20455;-78
2023/04/23 01:33:14;;;;;;;87.65;40.38;;;7.20;99.90;;;;;;4965425;28;20449;-79
2023/04/23 01:35:41;;;;;;;88.60;41.00;;;;;;;;;;4992232;28;20443;-78
2023/04/23 01:38:08;;;;;;;85.15;40.53;;;;;;;;;;4994003;28;20535;-78
2023/04/23 01:40:35;;;;;;;97.88;44.17;;;;;;;;;;4983585;28;20422;-78
2023/04/23 01:43:01;;;;;;;96.70;45.43;;;;;;;;;;4973524;28;20506;-78
2023/04/23 01:45:27;;;;;;;100.68;45.15;;;;;;;;;;4973660;28;20549;-78
2023/04/23 01:47:53;;;;;;;110.22;46.25;;;;;;;;;;4973415;28;20433;-79
2023/04/23 01:50:22;;;;;;;106.28;45.83;;;;;;;;;;4954508;28;20438;-79
2023/04/23 01:52:48;;;;;;;113.45;47.10;;;;;;;;;;4958930;28;20470;-82
2023/04/23 01:55:14;;;;;;;122.47;48.30;;;;;;;;;;5006289;28;20424;-82
2023/04/23 01:57:40;;;;;;;129.13;49.83;;;;;;;;;;4973901;28;20418;-82
2023/04/23 02:00:07;;;;;;;131.52;51.38;;;;;;;;;;4964733;28;20905;-82
2023/04/23 02:02:34;;;;;;;114.40;48.13;;;;;;;;;;4997264;28;20440;-81
2023/04/23 02:05:04;;;;;;;121.88;49.90;;;7.10;99.90;;;;;;4967936;28;20467;-82
2023/04/23 02:07:31;;;;;;;140.90;53.53;;;7.10;99.90;;;;;;4969161;28;20415;-82
2023/04/23 02:09:57;;;;;;;136.30;53.50;;;;;;;;;;4977134;28;20504;-81
2023/04/23 02:12:24;;;;;;;137.18;53.80;;;;;;;;;;4977266;28;20432;-82
2023/04/23 02:14:50;;;;;;;145.97;55.97;;;;;;;;;;4977588;28;20426;-82
2023/04/23 02:17:16;;;;;;;148.93;57.85;;;;;;;;;;4961719;28;20417;-82
2023/04/23 02:19:42;;;;;;;173.30;62.17;;;;;;;;;;4967917;28;20429;-82
2023/04/23 02:22:09;;;;;;;187.45;64.80;;;;;;;;;;4964983;28;20447;-83
2023/04/23 02:24:35;;;;;;;341.20;78.90;;;;;;;;;;4982014;28;20430;-82
2023/04/23 02:27:02;;;;;;;391.90;88.38;;;;;;;;;;4945543;28;20778;-82
2023/04/23 02:29:28;;;;;;;363.63;84.07;;;;;;;;;;4977577;28;20497;-80
2023/04/23 02:31:54;;;;;;;471.17;90.50;;;;;;;;;;4970692;28;20432;-81
2023/04/23 02:34:20;;;;;;;446.73;93.07;;;;;;;;;;4964254;28;20463;-81
2023/04/23 02:36:46;;;;;;;561.67;101.20;;;;;;;;;;4971899;28;20459;-83
2023/04/23 02:39:12;;;;;;;454.67;92.37;;;;;;;;;;4977236;28;20406;-82
2023/04/23 02:41:38;;;;;;;567.55;103.13;;;;;;;;;;4963033;28;20429;-81
2023/04/23 02:44:04;;;;;;;598.55;104.40;;;;;;;;;;4977234;28;20468;-82
2023/04/23 02:46:31;;;;;;;633.23;107.13;;;;;;;;;;4992129;28;20406;-81
2023/04/23 02:48:57;;;;;;;469.05;91.93;;;;;;;;;;4966519;28;20428;-82
2023/04/23 02:51:23;;;;;;;600.40;103.90;;;;;;;;;;4987829;28;20447;-81
2023/04/23 02:53:49;;;;;;;624.70;106.15;;;;;;;;;;4976493;28;20522;-81
2023/04/23 02:56:15;;;;;;;670.95;112.82;;;;;;;;;;4978431;28;20418;-81
2023/04/23 02:58:41;;;;;;;605.72;103.75;;;;;;;;;;4965948;28;20420;-81
2023/04/23 03:01:07;;;;;;;477.42;97.80;;;;;;;;;;4978161;28;20424;-81
2023/04/23 03:03:33;;;;;;;602.15;112.05;;;;;;;;;;4962957;28;20438;-81
2023/04/23 03:06:00;;;;;;;611.08;113.07;;;;;;;;;;4988034;28;21002;-82
2023/04/23 03:08:27;;;;;;;576.88;108.93;;;;;;;;;;4982173;28;20430;-82
2023/04/23 03:10:53;;;;;;;409.67;96.47;;;;;;;;;;4979550;28;20851;-81
2023/04/23 03:13:19;;;;;;;469.92;99.50;;;;;;;;;;4992815;28;20520;-82
2023/04/23 03:15:45;;;;;;;468.77;102.10;;;;;;;;;;4976724;28;20485;-81
2023/04/23 03:18:11;;;;;;;502.05;102.82;;;;;;;;;;4978389;28;20425;-82
2023/04/23 03:20:37;;;;;;;541.33;109.15;;;;;;;;;;4981401;28;20431;-82
2023/04/23 03:23:06;;;;;;;529.30;111.37;;;;;;;;;;4970645;28;20765;-79
2023/04/23 03:25:33;;;;;;;533.63;109.82;;;;;;;;;;4976167;28;20410;-78
2023/04/23 03:27:59;;;;;;;439.43;101.87;;;;;;;;;;4975740;28;20430;-78
2023/04/23 03:30:25;;;;;;;598.17;118.63;;;;;;;;;;4961420;28;20431;-78
2023/04/23 03:32:52;;;;;;;608.65;118.85;;;;;;;;;;4958504;28;20473;-78
2023/04/23 03:35:18;;;;;;;673.90;124.85;;;;;;;;;;4960259;28;20428;-78
2023/04/23 03:37:44;;;;;;;566.90;113.03;;;;;;;;;;4945762;28;20412;-78
2023/04/23 03:40:10;;;;;;;560.60;118.50;;;;;;;;;;4982667;28;20418;-81
2023/04/23 03:42:36;;;;;;;571.78;114.60;;;;;;;;;;4977442;28;20437;-82
2023/04/23 03:45:03;;;;;;;527.03;113.35;;;;;;;;;;4973816;28;20430;-82
2023/04/23 03:47:29;;;;;;;600.22;120.63;;;;;;;;;;4982388;28;20499;-80
2023/04/23 03:49:56;;;;;;;625.10;123.15;;;;;;;;;;4974679;28;20430;-82
2023/04/23 03:52:22;;;;;;;564.60;119.18;;;;;;;;;;4957763;28;20430;-81
2023/04/23 03:54:48;;;;;;;507.50;112.50;;;;;;;;;;4995110;28;20805;-81
2023/04/23 03:57:15;;;;;;;493.70;113.75;;;;;;;;;;4977406;28;20908;-81
2023/04/23 03:59:41;;;;;;;472.67;111.43;;;;;;;;;;4979358;28;20444;-82
2023/04/23 04:02:07;;;;;;;515.15;117.18;;;;;;;;;;4960409;28;20424;-81
2023/04/23 04:04:33;;;;;;;426.87;107.90;;;;;;;;;;4975611;28;20435;-81
2023/04/23 04:06:59;;;;;;;489.92;114.43;;;;;;;;;;4958417;28;20438;-81
2023/04/23 04:09:26;;;;;;;499.55;111.45;;;;;;;;;;4972810;28;20754;-81
2023/04/23 04:11:53;;;;;;;469.48;107.65;;;;;;;;;;4969756;28;20428;-80
2023/04/23 04:14:19;;;;;;;525.63;112.85;;;;;;;;;;4968581;28;20449;-82
2023/04/23 04:16:45;;;;;;;488.10;109.85;;;;;;;;;;4959099;28;20437;-81
2023/04/23 04:19:12;;;;;;;464.67;109.45;;;;;;;;;;4978217;28;20471;-81
2023/04/23 04:21:38;;;;;;;508.85;110.90;;;;;;;;;;4975503;28;20500;-81
2023/04/23 04:24:04;;;;;;;588.77;124.27;;;;;;;;;;4975362;28;20533;-82
2023/04/23 04:26:33;;;;;;;469.88;106.60;;;;;;;;;;5004036;28;20443;-80
2023/04/23 04:29:03;;;;;;;435.45;105.38;;;;;;;;;;4997383;28;20505;-82
2023/04/23 04:31:29;;;;;;;381.43;98.57;;;;;;;;;;4992212;28;20459;-81
2023/04/23 04:33:56;;;;;;;371.42;99.05;;;;;;;;;;4974184;28;20491;-82
2023/04/23 04:36:24;;;;;;;370.08;98.70;;;;;;;;;;4980952;28;20426;-81
2023/04/23 04:38:50;;;;;;;365.55;98.05;;;;;;;;;;4963576;28;20742;-80
2023/04/23 04:41:18;;;;;;;371.23;100.40;;;;;;;;;;4978174;28;20434;-82
2023/04/23 04:43:45;;;;;;;377.25;99.32;;;;;;;;;;4974273;28;20493;-81
2023/04/23 04:46:12;;;;;;;335.00;93.20;;;;;;;;;;4976495;28;20471;-82
2023/04/23 04:48:38;;;;;;;336.40;94.50;;;;;;;;;;4978187;28;20866;-81
2023/04/23 04:51:04;;;;;;;392.02;99.90;;;;;;;;;;4965609;28;20436;-81
2023/04/23 04:53:30;;;;;;;343.75;96.25;;;;;;;;;;4976240;28;20421;-81
2023/04/23 04:55:57;;;;;;;344.77;94.70;;;;;;;;;;4979203;28;20432;-82
2023/04/23 04:58:23;;;;;;;393.30;101.80;;;;;;;;;;4987738;28;20426;-81
2023/04/23 05:00:50;;;;;;;360.10;94.13;;;;;;;;;;4959903;28;20921;-81
2023/04/23 05:03:19;;;;;;;322.85;91.07;;;;;;;;;;4962347;28;20412;-81
2023/04/23 05:05:47;;;;;;;340.92;93.07;;;;;;;;;;4964920;28;20453;-81
2023/04/23 05:08:17;;;;;;;330.60;99.47;;;;;;;;;;4981832;28;20516;-81
2023/04/23 05:10:44;;;;;;;303.48;87.90;;;;;;;;;;4980416;28;20478;-81
2023/04/23 05:13:10;;;;;;;302.05;89.63;;;;;;;;;;4974933;28;20459;-80
2023/04/23 05:15:36;;;;;;;312.60;90.70;;;;;;;;;;4958202;28;20846;-81
2023/04/23 05:18:04;;;;;;;334.67;95.82;;;;;;;;;;4966941;28;20477;-82
2023/04/23 05:20:30;;;;;;;313.42;92.28;;;;;;;;;;4976751;28;20422;-82
2023/04/23 05:22:58;;;;;;;306.85;90.18;;;;;;;;;;4958984;28;20890;-82
2023/04/23 05:25:24;;;;;;;288.77;87.28;;;;;;;;;;4975147;28;20434;-82
2023/04/23 05:27:50;;;;;;;311.20;93.22;;;;;;;;;;4994171;28;20553;-82
2023/04/23 05:30:16;;;;;;;431.23;96.72;;;;;;;;;;4961723;28;20432;-82
2023/04/23 05:32:43;;;;;;;478.38;95.95;;;;;;;;;;4977712;28;20440;-81
2023/04/23 05:35:09;;;;;;;244.02;79.60;;;;;;;;;;4971270;28;20432;-82
2023/04/23 05:37:35;;;;;;;542.60;100.10;;;;;;;;;;4996780;28;20444;-82
2023/04/23 05:40:02;;;;;;;256.15;83.22;;;;;;;;;;4995269;28;20763;-82
2023/04/23 05:42:28;;;;;;;458.98;96.60;;;;;;;;;;4997810;28;20411;-82
2023/04/23 05:44:54;;;;;;;239.88;81.88;;;;;;;;;;4977237;28;20921;-83
2023/04/23 05:47:20;;;;;;;234.05;79.57;;;;;;;;;;4977439;28;20414;-81
2023/04/23 05:49:46;;;;;;;555.05;108.10;;;;;;;;;;4979019;28;20477;-80
2023/04/23 05:52:13;;;;;;;375.13;91.32;;;;;;;;;;4975563;28;20447;-81
2023/04/23 05:54:39;;;;;;;327.63;92.07;;;;;;;;;;4976130;28;20426;-81
2023/04/23 05:57:05;;;;;;;237.50;82.70;;;;;;;;;;4989637;28;20421;-81
2023/04/23 05:59:31;;;;;;;231.77;80.60;;;;;;;;;;4974524;28;20426;-83
2023/04/23 06:01:57;;;;;;;294.05;87.88;;;;;;;;;;4961711;28;20429;-82
2023/04/23 06:04:23;;;;;;;227.90;79.90;;;;;;;;;;4992660;28;20452;-83
2023/04/23 06:06:50;;;;;;;218.73;79.63;;;;;;;;;;4977534;28;20777;-83
2023/04/23 06:09:16;;;;;;;203.65;77.53;;;;;;;;;;4942963;28;20416;-84
2023/04/23 06:11:42;;;;;;;189.45;74.30;;;;;;;;;;4967305;28;20430;-82
2023/04/23 06:14:08;;;;;;;183.25;70.60;;;;;;;;;;4943272;28;20437;-82
2023/04/23 06:16:34;;;;;;;185.27;72.90;;;;;;;;;;4983573;28;20474;-83
2023/04/23 06:19:00;;;;;;;184.07;72.50;;;;;;;;;;4970718;28;20493;-83
2023/04/23 06:21:26;;;;;;;172.02;70.65;;;;;;;;;;4987717;28;20780;-82
2023/04/23 06:23:53;;;;;;;158.85;67.95;;;;;;;;;;4971172;28;20430;-81
2023/04/23 06:26:19;;;;;;;141.93;63.25;;;;;;;;;;4967602;28;20423;-82
2023/04/23 06:28:46;;;;;;;142.48;62.83;;;;;;;;;;4970201;28;20422;-82
2023/04/23 06:31:12;;;;;;;128.23;60.60;;;;;;;;;;4966329;28;20424;-83
2023/04/23 06:33:39;;;;;;;119.53;57.45;;;;;;;;;;4978312;28;20421;-83
2023/04/23 06:36:05;;;;;;;113.63;56.70;;;;;;;;;;4960712;28;20843;-82
2023/04/23 06:38:31;;;;;;;116.43;57.45;;;;;;;;;;4976815;28;20489;-79
2023/04/23 06:40:58;;;;;;;110.33;56.90;;;;;;;;;;4977720;28;20440;-78
2023/04/23 06:43:24;;;;;;;102.07;55.05;;;;;;;;;;4964435;28;20551;-78
2023/04/23 06:45:50;;;;;;;98.45;52.72;;;;;;;;;;4972238;28;20524;-79
2023/04/23 06:48:17;;;;;;;99.53;52.22;;;;;;;;;;4969374;28;20429;-78
2023/04/23 06:50:43;;;;;;;90.05;50.45;;;;;;;;;;4949093;28;20435;-78
2023/04/23 06:53:10;;;;;;;93.10;50.80;;;;;;;;;;4958202;28;20926;-78
2023/04/23 06:55:36;;;;;;;92.25;51.58;;;;;;;;;;4973904;28;20428;-77
2023/04/23 06:58:02;;;;;;;84.82;48.38;;;;;;;;;;4958151;28;20814;-78
2023/04/23 07:00:28;;;;;;;76.72;46.10;;;;;;;;;;4975416;28;20544;-78
2023/04/23 07:02:54;;;;;;;79.57;46.78;;;;;;;;;;4961217;28;20418;-80
2023/04/23 07:05:20;;;;;;;74.93;44.23;;;;;;;;;;4960458;28;20434;-80
2023/04/23 07:07:46;;;;;;;68.20;43.28;;;;;;;;;;4989626;28;20568;-79
2023/04/23 07:10:13;;;;;;;71.22;43.33;;;;;;;;;;4977800;28;20430;-79
2023/04/23 07:12:40;;;;;;;71.00;43.07;;;;;;;;;;4965104;28;20433;-79
2023/04/23 07:15:07;;;;;;;65.05;41.05;;;;;;;;;;4991913;28;20806;-79
2023/04/23 07:17:33;;;;;;;69.43;42.47;;;;;;;;;;4990141;28;20507;-79
2023/04/23 07:20:02;;;;;;;64.03;41.28;;;;;;;;;;4977327;28;20980;-80
2023/04/23 07:22:29;;;;;;;60.63;40.42;;;;;;;;;;4985935;28;20425;-80
2023/04/23 07:24:55;;;;;;;57.10;38.95;;;;;;;;;;4977374;28;20802;-79
2023/04/23 07:27:21;;;;;;;59.33;39.55;;;;;;;;;;4987412;28;20424;-80
2023/04/23 07:29:47;;;;;;;58.47;39.22;;;;;;;;;;4994270;28;20425;-80
2023/04/23 07:32:13;;;;;;;58.03;38.10;;;;;;;;;;4968862;28;20430;-79
2023/04/23 07:34:39;;;;;;;58.67;38.85;;;;;;;;;;4960813;28;20778;-79
2023/04/23 07:37:05;;;;;;;58.63;38.70;;;;;;;;;;4959880;28;20576;-81
2023/04/23 07:39:32;;;;;;;52.88;36.92;;;;;;;;;;4988682;28;20482;-78
2023/04/23 07:41:58;;;;;;;51.50;35.17;;;;;;;;;;4985175;28;20420;-79
2023/04/23 07:44:24;;;;;;;53.15;36.55;;;;;;;;;;4996578;28;20495;-80
2023/04/23 07:46:51;;;;;;;50.78;35.13;;;;;;;;;;4968956;28;20434;-80
2023/04/23 07:49:17;;;;;;;50.42;34.88;;;;;;;;;;4981989;28;20436;-80
2023/04/23 07:51:43;;;;;;;47.78;34.03;;;;;;;;;;4955620;28;20430;-80
2023/04/23 07:54:10;;;;;;;49.42;34.63;;;;;;;;;;4974362;28;20426;-80
2023/04/23 07:56:36;;;;;;;46.75;33.35;;;;;;;;;;4984925;28;20432;-81
2023/04/23 07:59:04;;;;;;;43.10;32.33;;;;;;;;;;4952993;28;20491;-80
2023/04/23 08:01:32;;;;;;;43.30;31.27;;;;;;;;;;4963935;28;20416;-80
2023/04/23 08:03:59;;;;;;;41.85;30.25;;;;;;;;;;4962936;28;20410;-79
2023/04/23 08:06:26;;;;;;;41.53;29.83;;;;;;;;;;4988423;28;20481;-79
2023/04/23 08:08:54;;;;;;;43.22;30.95;;;;;;;;;;4957994;28;20435;-80
2023/04/23 08:11:21;;;;;;;42.58;30.17;;;;;;;;;;4953046;28;20748;-80
2023/04/23 08:13:47;;;;;;;43.05;30.55;;;;;;;;;;4969188;28;20426;-79
2023/04/23 08:16:13;;;;;;;43.13;30.33;;;;;;;;;;4958084;28;20437;-80
2023/04/23 08:18:39;;;;;;;37.15;27.98;;;;;;;;;;4966091;28;20421;-80
2023/04/23 08:21:05;;;;;;;40.38;29.08;;;;;;;;;;4955610;28;20435;-80
2023/04/23 08:23:31;;;;;;;38.90;27.75;;;;;;;;;;4960263;28;20437;-80
2023/04/23 08:25:57;;;;;;;40.08;29.02;;;;;;;;;;4979052;28;20454;-79
2023/04/23 08:28:23;;;;;;;38.78;28.40;;;;;;;;;;4977559;28;20560;-79
2023/04/23 08:30:50;;;;;;;37.55;27.33;;;;;;;;;;4965907;28;20477;-79
2023/04/23 08:33:16;;;;;;;34.38;25.80;;;;;;;;;;4981480;28;20537;-80
2023/04/23 08:35:42;;;;;;;37.20;27.00;;;;;;;;;;4975206;28;20445;-80
2023/04/23 08:38:08;;;;;;;35.78;26.75;;;;;;;;;;4958507;28;20434;-80
2023/04/23 08:40:36;;;;;;;34.47;25.93;;;;;;;;;;4973472;28;20426;-79
2023/04/23 08:43:07;;;;;;;30.75;23.92;;;13.90;99.90;;;;;;4973510;28;20506;-80
2023/04/23 08:45:40;;;;;;;32.83;24.45;;;;;;;;;;4965125;28;20805;-80
2023/04/23 08:48:06;;;;;;;32.00;23.42;;;;;;;;;;4979914;28;20424;-80
2023/04/23 08:50:32;;;;;;;29.80;23.02;;;;;;;;;;4962500;28;20428;-80
2023/04/23 08:52:59;;;;;;;29.83;22.30;;;;;;;;;;4992928;28;20444;-80
2023/04/23 08:55:25;;;;;;;27.65;21.48;;;;;;;;;;4977623;28;20437;-79
2023/04/23 08:57:51;;;;;;;26.45;20.63;;;;;;;;;;4972235;28;20439;-79
2023/04/23 09:00:19;;;;;;;27.42;19.98;;;15.10;99.90;;;;;;4961257;28;20451;-80
2023/04/23 09:02:47;;;;;;;25.77;19.53;;;;;;;;;;5007354;28;20418;-80
2023/04/23 09:05:13;;;;;;;25.70;19.45;;;;;;;;;;4991195;28;20442;-77
2023/04/23 09:07:40;;;;;;;24.63;18.45;;;15.60;99.90;;;;;;4978387;28;20507;-77
2023/04/23 09:10:07;;;;;;;21.40;16.37;;;;;;;;;;4992753;28;20922;-78
2023/04/23 09:12:37;;;;;;;20.92;15.05;;;;;;;;;;4977430;28;20510;-79
2023/04/23 09:15:09;;;;;;;18.27;14.10;;;;;;;;;;4977496;28;20465;-79
2023/04/23 09:17:35;;;;;;;19.75;13.98;;;;;;;;;;4979832;28;20405;-79
2023/04/23 09:20:02;;;;;;;18.52;14.15;;;;;;;;;;4961405;28;20414;-79
2023/04/23 09:22:39;;;;;;;20.50;13.95;;;16.60;99.90;;;;;;4979494;28;20433;-79
2023/04/23 09:25:07;;;;;;;17.83;13.48;;;16.40;99.90;;;;;;4986088;28;20432;-79
2023/04/23 09:27:35;;;;;;;17.70;13.40;;;;;;;;;;4958066;28;20920;-80
2023/04/23 09:30:03;;;;;;;18.58;12.30;;;;;;;;;;4973800;28;20419;-78
2023/04/23 09:32:44;;;;;;;20.33;14.15;;;16.40;99.90;;;;;;4988877;28;20491;-79
2023/04/23 09:35:12;;;;;;;20.13;13.98;;;;;;;;;;4971137;28;20440;-79
2023/04/23 09:37:41;;;;;;;20.80;14.43;;;;;;;;;;4998238;28;20496;-79
2023/04/23 09:40:07;;;;;;;19.42;12.60;;;;;;;;;;4982069;28;20412;-78
2023/04/23 09:42:34;;;;;;;17.35;11.85;;;;;;;;;;4954263;28;20444;-80
2023/04/23 09:45:03;;;;;;;17.40;9.40;;;16.80;99.90;;;;;;4962427;28;20429;-80
2023/04/23 09:47:40;;;;;;;14.77;9.05;;;;;;;;;;4979331;28;20435;-80
2023/04/23 09:50:09;;;;;;;14.23;8.68;;;;;;;;;;4962403;28;20477;-81
2023/04/23 09:52:38;;;;;;;13.75;7.78;;;16.60;99.90;;;;;;4969452;28;20561;-80
2023/04/23 09:55:05;;;;;;;13.90;7.22;;;;;;;;;;4999109;28;20952;-80
2023/04/23 09:57:39;;;;;;;13.30;6.80;;;17.20;99.90;;;;;;4990168;28;20422;-79
2023/04/23 10:00:18;;;;;;;12.18;6.70;;;;;;;;;;5013387;28;20426;-80
2023/04/23 10:02:48;;;;;;;15.32;7.70;;;17.20;99.90;;;;;;4994817;28;20413;-81
2023/04/23 10:05:18;;;;;;;10.83;7.03;;;;;;;;;;4978864;28;20531;-80
2023/04/23 10:07:45;;;;;;;12.40;7.33;;;;;;;;;;4975738;28;20423;-79
2023/04/23 10:10:12;;;;;;;12.70;7.23;;;17.90;99.90;;;;;;4978409;28;20459;-77
2023/04/23 10:12:38;;;;;;;12.10;7.00;;;;;;;;;;4982384;28;20432;-79
2023/04/23 10:15:05;;;;;;;11.70;7.03;;;;;;;;;;4977583;28;20435;-79
2023/04/23 10:17:31;;;;;;;14.05;7.65;;;;;;;;;;4967434;28;20509;-79
2023/04/23 10:20:00;;;;;;;11.65;6.70;;;17.90;99.90;;;;;;4986822;28;20978;-79
2023/04/23 10:22:28;;;;;;;10.87;6.67;;;18.20;99.90;;;;;;4967858;28;21014;-79
2023/04/23 10:24:57;;;;;;;11.05;5.72;;;18.60;99.90;;;;;;4981286;28;20442;-79
2023/04/23 10:27:27;;;;;;;12.30;5.65;;;;;;;;;;4978353;28;20433;-80
2023/04/23 10:29:53;;;;;;;10.40;5.03;;;;;;;;;;4966189;28;20440;-80
2023/04/23 10:32:20;;;;;;;8.30;4.60;;;18.10;99.90;;;;;;4966447;28;20429;-78
2023/04/23 10:34:47;;;;;;;11.27;4.78;;;;;;;;;;4966128;28;20434;-79
2023/04/23 10:37:14;;;;;;;12.10;4.75;;;18.00;99.90;;;;;;4989875;28;20417;-79
2023/04/23 10:39:43;;;;;;;9.75;4.25;;;;;;;;;;4980696;28;20430;-79
2023/04/23 10:42:12;;;;;;;7.75;3.80;;;;;;;;;;4988235;28;20579;-78
2023/04/23 10:44:41;;;;;;;12.13;4.93;;;18.40;99.90;;;;;;4990163;28;20476;-78
2023/04/23 10:47:12;;;;;;;11.25;4.70;;;;;;;;;;4977736;28;20438;-79
2023/04/23 10:49:38;;;;;;;9.80;4.57;;;;;;;;;;4976798;28;20425;-78
2023/04/23 10:52:15;;;;;;;9.52;4.07;;;18.60;99.90;;;;;;4982099;28;20523;-78
2023/04/23 10:54:41;;;;;;;8.52;4.00;;;;;;;;;;4960750;28;21083;-79
2023/04/23 10:57:08;;;;;;;7.88;3.70;;;;;;;;;;4972071;28;20418;-77
2023/04/23 10:59:35;;;;;;;6.88;3.35;;;;;;;;;;4982772;28;20939;-80
2023/04/23 11:02:08;;;;;;;9.20;3.90;;;;;;;;;;4977926;28;20515;-78
2023/04/23 11:04:35;;;;;;;6.72;3.08;;;;;;;;;;4980978;28;20443;-78
2023/04/23 11:07:09;;;;;;;9.63;2.90;;;18.50;99.90;;;;;;4954386;28;20425;-78
2023/04/23 11:09:48;;;;;;;8.60;3.03;;;;;;;;;;4958042;28;20948;-78
2023/04/23 11:12:14;;;;;;;7.20;2.80;;;;;;;;;;4974406;28;20433;-78
2023/04/23 11:14:47;;;;;;;8.00;2.97;;;18.50;99.90;;;;;;4971367;28;20440;-79
2023/04/23 11:17:14;;;;;;;8.82;2.72;;;18.80;99.90;;;;;;4976233;28;20433;-78
2023/04/23 11:19:41;;;;;;;6.45;2.80;;;;;;;;;;4969624;28;20426;-80
2023/04/23 11:22:19;;;;;;;8.07;2.50;;;19.00;99.90;;;;;;4977708;28;20423;-80
2023/04/23 11:24:45;;;;;;;7.53;2.80;;;;;;;;;;4987904;28;20430;-80
2023/04/23 11:27:16;;;;;;;9.10;2.47;;;;;;;;;;4973092;28;20802;-80
2023/04/23 11:29:43;;;;;;;6.65;2.33;;;;;;;;;;4963352;28;20947;-79
2023/04/23 11:32:11;;;;;;;6.97;2.30;;;18.40;99.90;;;;;;4977599;28;20426;-80
2023/04/23 11:34:42;;;;;;;5.82;2.28;;;;;;;;;;4977622;28;20458;-80
2023/04/23 11:37:12;;;;;;;6.30;2.53;;;;;;;;;;4965644;28;20935;-79
2023/04/23 11:39:40;;;;;;;8.30;2.40;;;;;;;;;;4964996;28;20481;-80
2023/04/23 11:42:16;;;;;;;6.18;2.20;;;;;;;;;;4996538;28;20433;-79
2023/04/23 11:44:43;;;;;;;7.55;2.28;;;18.70;99.90;;;;;;4975414;28;20430;-79
2023/04/23 11:47:15;;;;;;;7.22;2.83;;;19.20;99.90;;;;;;4971413;28;20425;-78
2023/04/23 11:49:42;;;;;;;6.82;2.53;;;;;;;;;;4977951;28;20434;-79
2023/04/23 11:52:08;;;;;;;9.10;3.00;;;;;;;;;;4975499;28;20432;-81
2023/04/23 11:54:35;;;;;;;5.63;2.30;;;;;;;;;;4987890;28;20479;-79
2023/04/23 11:57:03;;;;;;;6.65;2.80;;;;;;;;;;4972732;28;20513;-81
2023/04/23 11:59:29;;;;;;;9.35;2.53;;;;;;;;;;4955945;28;20434;-81
2023/04/23 12:01:56;;;;;;;5.95;2.42;;;;;;;;;;4975465;28;20458;-81
2023/04/23 12:04:23;;;;;;;6.30;2.13;;;;;;;;;;4970404;28;20431;-80
2023/04/23 12:06:50;;;;;;;6.35;2.30;;;;;;;;;;4978140;28;20447;-81
2023/04/23 12:09:19;;;;;;;7.07;2.35;;;19.80;99.90;;;;;;4954814;28;20422;-80
2023/04/23 12:11:46;;;;;;;6.85;2.53;;;;;;;;;;4993474;28;20424;-80
2023/04/23 12:14:13;;;;;;;6.60;2.42;;;19.70;99.90;;;;;;4984098;28;20580;-80
2023/04/23 12:16:44;;;;;;;6.40;2.20;;;19.50;99.90;;;;;;4979583;28;20937;-80
2023/04/23 12:19:20;;;;;;;5.57;1.92;;;;;;;;;;4987170;28;20412;-81
2023/04/23 12:21:48;;;;;;;8.15;2.20;;;;;;;;;;4975044;28;20995;-80
2023/04/23 12:24:14;;;;;;;5.82;1.88;;;;;;;;;;4969263;28;20446;-81
2023/04/23 12:26:42;;;;;;;6.43;1.83;;;;;;;;;;4956350;28;20946;-81
2023/04/23 12:29:08;;;;;;;6.38;1.90;;;;;;;;;;4960810;28;20960;-80
2023/04/23 12:31:37;;;;;;;5.32;1.65;;;;;;;;;;4977500;28;20422;-80
2023/04/23 12:34:04;;;;;;;7.90;1.77;;;;;;;;;;4956149;28;20422;-80
2023/04/23 12:36:31;;;;;;;7.03;1.70;;;;;;;;;;4974632;28;20929;-79
2023/04/23 12:39:16;;;;;;;7.72;1.90;;;;;;;;;;4970064;28;20488;-80
2023/04/23 12:41:42;;;;;;;5.65;2.00;;;20.20;99.90;;;;;;4971426;28;20486;-81
2023/04/23 12:44:07;;;;;;;7.55;2.00;;;20.30;99.90;;;;;;4944327;28;20428;-81
2023/04/23 12:46:33;;;;;;;5.10;1.60;;;20.00;99.90;;;;;;4966722;28;20425;-81
2023/04/23 12:48:59;;;;;;;6.17;1.80;;;;;;;;;;4973745;28;20425;-81
2023/04/23 12:51:25;;;;;;;6.05;1.98;;;;;;;;;;4975948;28;20425;-80
2023/04/23 12:53:51;;;;;;;9.07;2.13;;;;;;;;;;4966667;28;20424;-79
2023/04/23 12:56:17;;;;;;;7.50;1.90;;;;;;;;;;4983583;28;20807;-80
2023/04/23 12:58:43;;;;;;;5.37;1.80;;;;;;;;;;4974251;28;20422;-80
2023/04/23 13:01:11;;;;;;;7.30;2.10;;;;;;;;;;4974466;28;20503;-80
2023/04/23 13:03:37;;;;;;;7.97;2.28;;;;;;;;;;4940112;28;20422;-82
2023/04/23 13:06:03;;;;;;;7.35;1.75;;;;;;;;;;4976594;28;20422;-80
2023/04/23 13:08:29;;;;;;;4.35;1.48;;;;;;;;;;4986613;28;20450;-80
2023/04/23 13:10:56;;;;;;;4.75;1.73;;;19.70;99.90;;;;;;4980691;28;20439;-80
2023/04/23 13:13:21;;;;;;;4.68;1.58;;;19.80;99.90;;;;;;4968516;28;20435;-81
2023/04/23 13:15:47;;;;;;;7.22;1.80;;;;;;;;;;4973817;28;20936;-81
2023/04/23 13:18:13;;;;;;;5.55;1.83;;;;;;;;;;4981397;28;20463;-80
2023/04/23 13:20:40;;;;;;;7.53;1.85;;;;;;;;;;4952464;28;20416;-81
2023/04/23 13:23:07;;;;;;;5.28;1.83;;;;;;;;;;4949655;28;21032;-81
2023/04/23 13:25:33;;;;;;;5.95;1.80;;;20.30;99.90;;;;;;4969065;28;20884;-80
2023/04/23 13:27:59;;;;;;;4.72;1.73;;;19.90;99.90;;;;;;4928915;28;20457;-78
2023/04/23 13:30:25;;;;;;;5.03;1.47;;;;;;;;;;4949922;28;20511;-79
2023/04/23 13:32:54;;;;;;;6.17;1.60;;;;;;;;;;4951536;28;20431;-80
2023/04/23 13:35:20;;;;;;;6.20;1.67;;;;;;;;;;4966798;28;20521;-80
2023/04/23 13:37:46;;;;;;;5.17;1.60;;;;;;;;;;4971220;28;20472;-80
2023/04/23 13:40:12;;;;;;;5.37;1.57;;;;;;;;;;4965715;28;20432;-81
2023/04/23 13:42:39;;;;;;;5.22;1.80;;;;;;;;;;4967523;28;20428;-79
2023/04/23 13:45:06;;;;;;;6.75;1.60;;;;;;;;;;4952037;28;20439;-79
2023/04/23 13:47:33;;;;;;;5.55;1.80;;;;;;;;;;4985167;28;20416;-79
2023/04/23 13:50:04;;;;;;;5.67;1.80;;;;;;;;;;4970042;28;20433;-80
2023/04/23 13:52:30;;;;;;;6.03;1.33;;;;;;;;;;4962788;28;20571;-80
2023/04/23 13:54:59;;;;;;;5.80;1.80;;;;;;;;;;4963085;28;20492;-80
2023/04/23 13:57:25;;;;;;;6.35;1.80;;;;;;;;;;4969943;28;20422;-80
2023/04/23 13:59:54;;;;;;;5.60;1.80;;;;;;;;;;4962563;28;20526;-80
2023/04/23 14:02:20;;;;;;;6.55;1.50;;;20.20;99.90;;;;;;4958878;28;20425;-80